Time;durP1;ratioP1;P1;durP2;ratioP2;P2;SDS_P1;SDS_P2;PMS_P1;PMS_P2;Temp;Humidity;BMP_temperature;BMP_pressure;BME280_temperature;BME280_humidity;BME280_pressure;Samples;Min_cycle;Max_cycle;Signal;HPM_P1;HPM_P2
2020/12/29 10:14:12;;;;;;;;;;;6.60;78.10;;;;;;5015963;22;119007;-88
2020/12/29 10:17:23;;;;;;;;;;;6.60;78.30;;;;;;4924729;28;117540;-88
2020/12/29 10:23:59;;;;;;;;;;;6.70;78.50;;;;;;5006392;28;117652;-88
2020/12/29 10:30:18;;;;;;;;;;;6.60;78.50;;;;;;5025619;28;117728;-88
2020/12/29 10:36:43;;;;;;;;;;;6.60;78.50;;;;;;4982691;28;117527;-88
2020/12/29 10:39:39;;;;;;;;;;;6.60;78.50;;;;;;4982897;28;117497;-88
2020/12/29 10:46:01;;;;;;;;;;;6.60;78.40;;;;;;4942734;28;117646;-88
2020/12/29 10:48:47;;;;;;;;;;;6.70;78.40;;;;;;4885529;28;117708;-88
2020/12/29 10:51:41;;;;;;;;;;;6.70;78.40;;;;;;4869869;28;117581;-88
2020/12/29 10:54:55;;;;;;;;;;;6.70;78.40;;;;;;4828602;29;117778;-88
2020/12/29 16:17:46;;;;;;;;;;;6.80;78.00;;;;;;5029400;28;117197;-83
2020/12/29 16:20:12;;;;;;;;;;;6.80;78.00;;;;;;4982744;28;117233;-83
2020/12/29 16:22:38;;;;;;;;;;;6.80;78.00;;;;;;4977700;28;117307;-83
2020/12/29 16:25:03;;;;;;;;;;;6.80;78.10;;;;;;4990926;28;117506;-83
2020/12/29 16:27:29;;;;;;;;;;;6.90;78.10;;;;;;4973527;28;117842;-82
2020/12/29 16:29:54;;;;;;;;;;;6.90;78.20;;;;;;4974219;28;117476;-82
2020/12/29 16:32:20;;;;;;;;;;;6.90;78.30;;;;;;4974869;28;117311;-82
2020/12/29 16:34:46;;;;;;;;;;;6.90;78.50;;;;;;4973522;28;118787;-82
2020/12/29 16:37:12;;;;;;;;;;;6.90;78.40;;;;;;4973276;28;117925;-83
2020/12/29 16:39:37;;;;;;;;;;;6.90;78.70;;;;;;4974289;28;117592;-83
2020/12/29 16:42:07;;;;;;;;;;;6.90;78.70;;;;;;4974212;28;117916;-83
2020/12/29 16:44:33;;;;;;;;;;;6.90;78.60;;;;;;4973918;28;120417;-81
2020/12/29 16:46:58;;;;;;;;;;;6.90;78.70;;;;;;4975848;28;118050;-81
2020/12/29 16:49:24;;;;;;;;;;;6.90;79.10;;;;;;4993857;28;117624;-81
2020/12/29 16:51:49;;;;;;;;;;;6.90;78.40;;;;;;4994311;28;117294;-81
2020/12/29 16:54:15;;;;;;;;;;;7.00;78.30;;;;;;4993064;28;117377;-81
2020/12/29 16:56:40;;;;;;;;;;;7.00;78.40;;;;;;4976479;28;119877;-81
2020/12/29 16:59:06;;;;;;;;;;;7.00;78.50;;;;;;4994996;28;116808;-81
2020/12/29 17:01:33;;;;;;;;;;;7.00;78.40;;;;;;4978375;28;117901;-81
2020/12/29 17:03:59;;;;;;;;;;;7.00;78.30;;;;;;4977359;28;120456;-81
2020/12/29 17:06:24;;;;;;;;;;;7.00;78.50;;;;;;4977460;28;119690;-81
2020/12/29 17:08:50;;;;;;;;;;;7.00;78.70;;;;;;4995463;28;117984;-81
2020/12/29 17:11:16;;;;;;;;;;;7.00;78.70;;;;;;4980340;28;117834;-81
2020/12/29 17:13:42;;;;;;;;;;;7.00;78.80;;;;;;4996192;28;117565;-81
2020/12/29 17:16:10;;;;;;;;;;;7.00;78.60;;;;;;4978640;28;118818;-81
2020/12/29 17:18:36;;;;;;;;;;;7.00;78.70;;;;;;5013603;28;117171;-82
2020/12/29 17:21:06;;;;;;;;;;;7.00;78.80;;;;;;4981024;28;117839;-81
2020/12/29 17:23:31;;;;;;;;;;;7.10;79.00;;;;;;4979882;28;117492;-81
2020/12/29 17:25:57;;;;;;;;;;;7.00;79.10;;;;;;4997445;28;117861;-81
2020/12/29 17:28:22;;;;;;;;;;;7.00;78.90;;;;;;4998847;28;117435;-82
2020/12/29 17:30:48;;;;;;;;;;;7.00;78.50;;;;;;4982512;28;117968;-82
2020/12/29 17:33:14;;;;;;;;;;;7.10;79.00;;;;;;4982041;28;118539;-81
2020/12/29 17:35:39;;;;;;;;;;;7.00;78.30;;;;;;4982304;28;121087;-82
2020/12/29 17:38:04;;;;;;;;;;;7.10;78.80;;;;;;4977267;28;117443;-81
2020/12/29 17:40:30;;;;;;;;;;;7.10;79.00;;;;;;4991823;28;117424;-81
2020/12/29 17:42:55;;;;;;;;;;;7.10;79.30;;;;;;4973413;28;118668;-81
2020/12/29 17:45:21;;;;;;;;;;;7.10;78.80;;;;;;4973599;28;117458;-81
2020/12/29 17:47:46;;;;;;;;;;;7.10;79.10;;;;;;4975116;28;117573;-81
2020/12/29 17:50:12;;;;;;;;;;;7.10;78.70;;;;;;4975385;28;117538;-81
2020/12/29 17:52:37;;;;;;;;;;;7.10;78.40;;;;;;4974119;28;120847;-81
2020/12/29 17:55:03;;;;;;;;;;;7.10;79.20;;;;;;4973775;28;118590;-81
2020/12/29 17:57:28;;;;;;;;;;;7.10;79.20;;;;;;4992072;28;117540;-81
2020/12/29 17:59:54;;;;;;;;;;;7.10;78.70;;;;;;4992350;28;117467;-82
2020/12/29 18:02:19;;;;;;;;;;;7.10;78.40;;;;;;4974639;28;120159;-81
2020/12/29 18:04:45;;;;;;;;;;;7.10;78.80;;;;;;4975803;28;118240;-81
2020/12/29 18:07:10;;;;;;;;;;;7.10;78.90;;;;;;4976116;28;117908;-81
2020/12/29 18:09:38;;;;;;;;;;;7.10;78.50;;;;;;4994018;28;117597;-81
2020/12/29 18:12:04;;;;;;;;;;;7.10;78.70;;;;;;4993605;28;118786;-81
2020/12/29 18:14:29;;;;;;;;;;;7.10;78.80;;;;;;4977598;28;117454;-81
2020/12/29 18:16:55;;;;;;;;;;;7.10;78.90;;;;;;4980613;28;117538;-81
2020/12/29 18:19:20;;;;;;;;;;;7.10;78.40;;;;;;4981225;28;117861;-81
2020/12/29 18:21:51;;;;;;;;;;;7.10;78.40;;;;;;4980546;28;118802;-81
2020/12/29 18:24:17;;;;;;;;;;;7.10;78.70;;;;;;4997821;28;117687;-81
2020/12/29 18:26:43;;;;;;;;;;;7.10;78.60;;;;;;4999246;28;117238;-81
2020/12/29 18:29:08;;;;;;;;;;;7.10;78.80;;;;;;4983019;28;117882;-81
2020/12/29 18:31:34;;;;;;;;;;;7.10;78.60;;;;;;4982640;28;120568;-81
2020/12/29 18:33:59;;;;;;;;;;;7.10;79.10;;;;;;4983049;28;117863;-81
2020/12/29 18:36:25;;;;;;;;;;;7.10;78.50;;;;;;4985296;28;117283;-81
2020/12/29 18:38:50;;;;;;;;;;;7.10;78.60;;;;;;4985061;28;117398;-81
2020/12/29 18:41:17;;;;;;;;;;;7.10;78.90;;;;;;5002078;28;117572;-81
2020/12/29 18:43:43;;;;;;;;;;;7.10;78.50;;;;;;4985883;28;117494;-81
2020/12/29 18:46:08;;;;;;;;;;;7.10;78.60;;;;;;4986871;28;117445;-81
2020/12/29 18:48:34;;;;;;;;;;;7.10;78.70;;;;;;4988485;28;118401;-81
2020/12/29 18:50:59;;;;;;;;;;;7.10;78.50;;;;;;4983271;28;117899;-81
2020/12/29 18:53:25;;;;;;;;;;;7.10;78.60;;;;;;4976991;28;118677;-81
2020/12/29 18:55:50;;;;;;;;;;;7.10;78.50;;;;;;4977666;28;117470;-81
2020/12/29 18:58:16;;;;;;;;;;;7.10;78.60;;;;;;4995625;28;117845;-81
2020/12/29 19:00:42;;;;;;;;;;;7.10;78.50;;;;;;4977906;28;118710;-81
2020/12/29 19:03:07;;;;;;;;;;;7.10;78.50;;;;;;4977248;28;119711;-81
2020/12/29 19:05:33;;;;;;;;;;;7.10;78.50;;;;;;4979159;28;117292;-81
2020/12/29 19:07:58;;;;;;;;;;;7.10;78.60;;;;;;4995426;28;117915;-81
2020/12/29 19:10:24;;;;;;;;;;;7.10;78.50;;;;;;4978563;28;120022;-81
2020/12/29 19:12:52;;;;;;;;;;;7.10;78.50;;;;;;4978865;28;119699;-81
2020/12/29 19:15:20;;;;;;;;;;;7.10;78.50;;;;;;4980666;28;117512;-81
2020/12/29 19:17:47;;;;;;;;;;;7.10;78.60;;;;;;4981349;28;117903;-81
2020/12/29 19:20:12;;;;;;;;;;;7.10;78.50;;;;;;4980528;28;118464;-81
2020/12/29 19:22:38;;;;;;;;;;;7.10;78.40;;;;;;4979124;28;119870;-81
2020/12/29 19:25:03;;;;;;;;;;;7.10;78.50;;;;;;4996050;28;117334;-81
2020/12/29 19:27:29;;;;;;;;;;;7.10;78.50;;;;;;4982010;28;117794;-81
2020/12/29 19:29:54;;;;;;;;;;;7.10;78.50;;;;;;4982591;28;117534;-81
2020/12/29 19:32:20;;;;;;;;;;;7.10;78.40;;;;;;4982522;28;117917;-81
2020/12/29 19:34:45;;;;;;;;;;;7.10;78.50;;;;;;4983910;28;117225;-81
2020/12/29 19:37:11;;;;;;;;;;;7.10;78.70;;;;;;4984644;28;117239;-81
2020/12/29 19:39:36;;;;;;;;;;;7.10;78.50;;;;;;4984003;28;120593;-81
2020/12/29 19:42:02;;;;;;;;;;;7.10;78.50;;;;;;4984029;28;119822;-81
2020/12/29 19:44:27;;;;;;;;;;;7.10;78.50;;;;;;5003547;28;117455;-81
2020/12/29 19:46:56;;;;;;;;;;;7.10;78.50;;;;;;4987033;28;117875;-81
2020/12/29 19:49:22;;;;;;;;;;;7.10;78.40;;;;;;4986688;28;119444;-81
2020/12/29 19:51:50;;;;;;;;;;;7.00;78.40;;;;;;4986968;28;120553;-81
2020/12/29 19:54:16;;;;;;;;;;;7.00;78.40;;;;;;4988131;28;117413;-81
2020/12/29 19:56:41;;;;;;;;;;;7.10;78.50;;;;;;4988582;28;117580;-81
2020/12/29 19:59:07;;;;;;;;;;;7.10;78.40;;;;;;4988187;28;117545;-81
2020/12/29 20:01:33;;;;;;;;;;;7.10;78.50;;;;;;5006183;28;117926;-81
2020/12/29 20:03:59;;;;;;;;;;;7.00;78.40;;;;;;4990742;28;117407;-81
2020/12/29 20:06:24;;;;;;;;;;;7.00;78.30;;;;;;4978532;28;117833;-81
2020/12/29 20:08:50;;;;;;;;;;;7.10;78.40;;;;;;4976904;28;117661;-81
2020/12/29 20:11:22;;;;;;;;;;;7.00;78.50;;;;;;4994553;28;117670;-81
2020/12/29 20:13:50;;;;;;;;;;;7.10;78.40;;;;;;4978855;28;117466;-81
2020/12/29 20:16:16;;;;;;;;;;;7.00;78.40;;;;;;4979105;28;117877;-81
2020/12/29 20:18:41;;;;;;;;;;;7.10;78.30;;;;;;4978009;28;117983;-81
2020/12/29 20:21:09;;;;;;;;;;;7.00;78.30;;;;;;4994566;28;117673;-81
2020/12/29 20:23:35;;;;;;;;;;;7.10;78.40;;;;;;4978996;28;117336;-81
2020/12/29 20:26:00;;;;;;;;;;;7.00;78.30;;;;;;4979433;28;117883;-81
2020/12/29 20:28:26;;;;;;;;;;;7.00;78.30;;;;;;4979239;28;120429;-81
2020/12/29 20:30:51;;;;;;;;;;;7.00;78.30;;;;;;4978629;28;117959;-81
2020/12/29 20:33:17;;;;;;;;;;;7.10;78.40;;;;;;4997216;28;117377;-80
2020/12/29 20:35:42;;;;;;;;;;;7.00;78.30;;;;;;4981352;28;117466;-81
2020/12/29 20:38:08;;;;;;;;;;;7.00;78.30;;;;;;4996209;28;117592;-81
2020/12/29 20:40:34;;;;;;;;;;;7.00;78.30;;;;;;4997566;28;117662;-81
2020/12/29 20:42:59;;;;;;;;;;;7.00;78.30;;;;;;4981639;28;117525;-81
2020/12/29 20:45:25;;;;;;;;;;;7.10;78.30;;;;;;4982125;28;117615;-81
2020/12/29 20:47:50;;;;;;;;;;;7.00;78.30;;;;;;4982194;28;120500;-81
2020/12/29 20:50:16;;;;;;;;;;;7.00;78.30;;;;;;4982594;28;118679;-80
2020/12/29 20:52:45;;;;;;;;;;;7.00;78.30;;;;;;4983877;28;117720;-81
2020/12/29 20:55:10;;;;;;;;;;;7.00;78.30;;;;;;4985254;28;117811;-81
2020/12/29 20:57:36;;;;;;;;;;;7.00;78.30;;;;;;4984551;28;118611;-81
2020/12/29 21:00:02;;;;;;;;;;;7.00;78.30;;;;;;4984683;28;118013;-81
2020/12/29 21:02:27;;;;;;;;;;;7.00;78.30;;;;;;4986390;28;117509;-81
2020/12/29 21:04:53;;;;;;;;;;;7.00;78.30;;;;;;4985924;28;117863;-81
2020/12/29 21:07:18;;;;;;;;;;;7.00;78.30;;;;;;5002774;28;117679;-81
2020/12/29 21:09:44;;;;;;;;;;;7.00;78.20;;;;;;4985683;28;118814;-81
2020/12/29 21:12:09;;;;;;;;;;;7.00;78.20;;;;;;4988128;28;117521;-81
2020/12/29 21:14:35;;;;;;;;;;;7.00;78.20;;;;;;4989938;28;117819;-81
2020/12/29 21:17:00;;;;;;;;;;;7.00;78.30;;;;;;4989866;28;117303;-81
2020/12/29 21:19:26;;;;;;;;;;;7.00;78.20;;;;;;4980809;28;117444;-81
2020/12/29 21:21:51;;;;;;;;;;;7.00;78.20;;;;;;4978937;28;117929;-81
2020/12/29 21:24:17;;;;;;;;;;;7.00;78.30;;;;;;4975202;28;117402;-82
2020/12/29 21:26:42;;;;;;;;;;;7.00;78.20;;;;;;4973472;28;119272;-82
2020/12/29 21:29:08;;;;;;;;;;;7.00;78.20;;;;;;4973217;28;119179;-82
2020/12/29 21:31:33;;;;;;;;;;;7.00;78.20;;;;;;4973980;28;117439;-83
2020/12/29 21:33:59;;;;;;;;;;;7.10;78.20;;;;;;4973916;28;117699;-83
2020/12/29 21:36:25;;;;;;;;;;;7.00;78.10;;;;;;4973529;28;118461;-83
2020/12/29 21:38:51;;;;;;;;;;;7.00;78.10;;;;;;4973742;28;119753;-83
2020/12/29 21:41:16;;;;;;;;;;;7.00;78.10;;;;;;4974604;28;117590;-83
2020/12/29 21:43:42;;;;;;;;;;;7.00;78.20;;;;;;4974679;28;117780;-83
2020/12/29 21:46:11;;;;;;;;;;;7.00;78.10;;;;;;4974213;28;117602;-82
2020/12/29 21:48:37;;;;;;;;;;;7.00;78.10;;;;;;4973773;28;118538;-82
2020/12/29 21:51:02;;;;;;;;;;;7.00;78.10;;;;;;4991820;28;117587;-82
2020/12/29 21:53:28;;;;;;;;;;;7.00;78.10;;;;;;4992305;28;117803;-82
2020/12/29 21:55:53;;;;;;;;;;;7.00;78.10;;;;;;4974602;28;118903;-82
2020/12/29 21:58:19;;;;;;;;;;;7.00;78.00;;;;;;4972768;28;118700;-82
2020/12/29 22:00:47;;;;;;;;;;;7.00;78.00;;;;;;4974550;28;117389;-82
2020/12/29 22:03:13;;;;;;;;;;;7.00;78.00;;;;;;4975592;28;117741;-82
2020/12/29 22:05:38;;;;;;;;;;;7.00;78.00;;;;;;4973737;28;119545;-82
2020/12/29 22:08:04;;;;;;;;;;;7.00;78.00;;;;;;4991468;28;117460;-82
2020/12/29 22:10:29;;;;;;;;;;;7.00;77.90;;;;;;4974480;28;117481;-82
2020/12/29 22:12:55;;;;;;;;;;;7.00;78.00;;;;;;4974828;28;117899;-82
2020/12/29 22:17:54;;;;;;;;;;;7.00;78.00;;;;;;5026202;28;118944;-77
2020/12/29 22:20:20;;;;;;;;;;;7.00;78.00;;;;;;5011285;28;117738;-77
2020/12/29 22:22:45;;;;;;;;;;;7.00;77.90;;;;;;4993609;28;117819;-77
2020/12/29 22:25:11;;;;;;;;;;;7.00;78.00;;;;;;5010374;28;120004;-77
2020/12/29 22:27:36;;;;;;;;;;;7.00;77.90;;;;;;5010797;28;117665;-77
2020/12/29 22:30:03;;;;;;;;;;;7.00;78.00;;;;;;5011432;28;117739;-77
2020/12/29 22:32:28;;;;;;;;;;;7.00;78.00;;;;;;5012100;28;117829;-77
2020/12/29 22:34:54;;;;;;;;;;;7.00;78.00;;;;;;5010559;28;117462;-77
2020/12/29 22:37:19;;;;;;;;;;;7.00;78.00;;;;;;5011090;28;120291;-77
2020/12/29 22:39:45;;;;;;;;;;;7.00;77.90;;;;;;5011468;28;117750;-79
2020/12/29 22:42:10;;;;;;;;;;;7.00;77.90;;;;;;5010205;28;117330;-78
2020/12/29 22:44:36;;;;;;;;;;;7.00;77.90;;;;;;5008808;28;117341;-77
2020/12/29 22:47:01;;;;;;;;;;;7.00;77.90;;;;;;5008792;28;117574;-77
2020/12/29 22:49:27;;;;;;;;;;;7.00;77.90;;;;;;5009286;28;117535;-77
2020/12/29 22:51:52;;;;;;;;;;;7.00;77.90;;;;;;5010403;28;117951;-77
2020/12/29 22:54:18;;;;;;;;;;;7.00;77.90;;;;;;5009906;28;117759;-77
2020/12/29 22:56:44;;;;;;;;;;;7.00;77.90;;;;;;5010380;28;117955;-77
2020/12/29 22:59:09;;;;;;;;;;;7.00;77.90;;;;;;5010283;28;117515;-77
2020/12/29 23:01:34;;;;;;;;;;;7.00;78.00;;;;;;5012551;28;116918;-77
2020/12/29 23:04:00;;;;;;;;;;;7.00;77.90;;;;;;5031249;28;117507;-77
2020/12/29 23:06:26;;;;;;;;;;;7.00;77.90;;;;;;5013700;28;119761;-77
2020/12/29 23:08:51;;;;;;;;;;;7.00;77.90;;;;;;5031614;28;117764;-77
2020/12/29 23:11:17;;;;;;;;;;;7.00;77.90;;;;;;5014934;28;117487;-77
2020/12/29 23:13:42;;;;;;;;;;;7.00;77.90;;;;;;5015310;28;117794;-77
2020/12/29 23:16:08;;;;;;;;;;;7.00;77.90;;;;;;5015357;28;117487;-77
2020/12/29 23:18:34;;;;;;;;;;;7.00;77.90;;;;;;4999422;27;117634;-77
2020/12/29 23:20:59;;;;;;;;;;;7.00;77.90;;;;;;5016283;28;117384;-77
2020/12/29 23:23:25;;;;;;;;;;;7.00;77.90;;;;;;5017390;28;119168;-77
2020/12/29 23:25:51;;;;;;;;;;;7.00;77.90;;;;;;5033026;28;117332;-78
2020/12/29 23:28:17;;;;;;;;;;;7.00;77.90;;;;;;4997195;28;117563;-78
2020/12/29 23:30:43;;;;;;;;;;;7.00;77.90;;;;;;5014305;28;117329;-78
2020/12/29 23:33:08;;;;;;;;;;;7.00;77.90;;;;;;5012758;28;119763;-78
2020/12/29 23:35:35;;;;;;;;;;;7.00;77.90;;;;;;5012756;28;117869;-77
2020/12/29 23:38:00;;;;;;;;;;;7.00;77.90;;;;;;5014009;28;117465;-77
2020/12/29 23:40:26;;;;;;;;;;;7.00;77.90;;;;;;5014010;28;117761;-77
2020/12/29 23:42:51;;;;;;;;;;;7.00;77.90;;;;;;5013749;28;118458;-77
2020/12/29 23:45:17;;;;;;;;;;;7.00;77.90;;;;;;5013456;28;120334;-77
2020/12/29 23:47:42;;;;;;;;;;;7.00;77.90;;;;;;5014179;28;117740;-77
2020/12/29 23:50:09;;;;;;;;;;;7.00;77.90;;;;;;4998258;28;117673;-77
2020/12/29 23:52:34;;;;;;;;;;;7.00;77.90;;;;;;4997966;28;120952;-77
2020/12/29 23:55:00;;;;;;;;;;;7.00;77.90;;;;;;5011912;28;117604;-77
2020/12/29 23:57:25;;;;;;;;;;;7.00;77.90;;;;;;5011202;28;117588;-77
2020/12/29 23:59:51;;;;;;;;;;;7.00;77.90;;;;;;5010931;28;117312;-77
